Terminal Aerodrome Forecast
Issued by NWS

Home | Current Version | Previous Version | Text Only | Print | Product List | Glossary On
Versions: 1 2 3 4 5 6 7 8 9 10 11 12 13 14 15 16 17 18 19
000
FTUS46 KLOX 241311 AAB
TAFBUR
TAF AMD
KBUR 241311Z 2413/2512 VRB03KT P6SM SCT150
     FM242000 17010KT P6SM SKC
     FM250300 13010KT P6SM SKC
     FM250800 VRB03KT P6SM SKC=

USA.gov is the U.S. government's official web portal to all federal, state and local government web resources and services.